sensor_id;sensor_type;location;lat;lon;timestamp;temperature;humidity
2899;DHT22;1459;50.864;6.438;2022-12-07T00:01:47;5.40;99.90
2899;DHT22;1459;50.864;6.438;2022-12-07T00:04:16;5.40;99.90
2899;DHT22;1459;50.864;6.438;2022-12-07T00:06:44;5.40;99.90
2899;DHT22;1459;50.864;6.438;2022-12-07T00:09:13;5.40;99.90
2899;DHT22;1459;50.864;6.438;2022-12-07T00:11:42;5.40;99.90
2899;DHT22;1459;50.864;6.438;2022-12-07T00:14:12;5.40;99.90
2899;DHT22;1459;50.864;6.438;2022-12-07T00:16:40;5.40;99.90
2899;DHT22;1459;50.864;6.438;2022-12-07T00:19:08;5.40;99.90
2899;DHT22;1459;50.864;6.438;2022-12-07T00:21:36;5.30;99.90
2899;DHT22;1459;50.864;6.438;2022-12-07T00:24:04;5.20;99.90
2899;DHT22;1459;50.864;6.438;2022-12-07T00:26:33;5.20;99.90
2899;DHT22;1459;50.864;6.438;2022-12-07T00:29:05;5.20;99.90
2899;DHT22;1459;50.864;6.438;2022-12-07T00:31:34;5.20;99.90
2899;DHT22;1459;50.864;6.438;2022-12-07T00:34:04;5.20;99.90
2899;DHT22;1459;50.864;6.438;2022-12-07T00:36:32;5.20;99.90
2899;DHT22;1459;50.864;6.438;2022-12-07T00:38:59;5.30;99.90
2899;DHT22;1459;50.864;6.438;2022-12-07T00:41:28;5.30;99.90
2899;DHT22;1459;50.864;6.438;2022-12-07T00:43:56;5.30;99.90
2899;DHT22;1459;50.864;6.438;2022-12-07T00:46:25;5.30;99.90
2899;DHT22;1459;50.864;6.438;2022-12-07T00:48:52;5.30;99.90
2899;DHT22;1459;50.864;6.438;2022-12-07T00:51:22;5.40;99.90
2899;DHT22;1459;50.864;6.438;2022-12-07T00:53:50;5.40;99.90
2899;DHT22;1459;50.864;6.438;2022-12-07T00:56:18;5.40;99.90
2899;DHT22;1459;50.864;6.438;2022-12-07T00:58:50;5.40;99.90
2899;DHT22;1459;50.864;6.438;2022-12-07T01:01:17;5.30;99.90
2899;DHT22;1459;50.864;6.438;2022-12-07T01:03:46;5.30;99.90
2899;DHT22;1459;50.864;6.438;2022-12-07T01:06:14;5.40;99.90
2899;DHT22;1459;50.864;6.438;2022-12-07T01:08:42;5.40;99.90
2899;DHT22;1459;50.864;6.438;2022-12-07T01:11:12;5.40;99.90
2899;DHT22;1459;50.864;6.438;2022-12-07T01:13:40;5.40;99.90
2899;DHT22;1459;50.864;6.438;2022-12-07T01:16:09;5.40;99.90
2899;DHT22;1459;50.864;6.438;2022-12-07T01:18:37;5.40;99.90
2899;DHT22;1459;50.864;6.438;2022-12-07T01:21:08;5.30;99.90
2899;DHT22;1459;50.864;6.438;2022-12-07T01:23:36;5.40;99.90
2899;DHT22;1459;50.864;6.438;2022-12-07T01:26:05;5.30;99.90
2899;DHT22;1459;50.864;6.438;2022-12-07T01:28:33;5.40;99.90
2899;DHT22;1459;50.864;6.438;2022-12-07T01:31:02;5.40;99.90
2899;DHT22;1459;50.864;6.438;2022-12-07T01:33:31;5.40;99.90
2899;DHT22;1459;50.864;6.438;2022-12-07T01:36:02;5.40;99.90
2899;DHT22;1459;50.864;6.438;2022-12-07T01:38:32;5.50;99.90
2899;DHT22;1459;50.864;6.438;2022-12-07T01:41:01;5.50;99.90
2899;DHT22;1459;50.864;6.438;2022-12-07T01:43:32;5.50;99.90
2899;DHT22;1459;50.864;6.438;2022-12-07T01:46:00;5.50;99.90
2899;DHT22;1459;50.864;6.438;2022-12-07T01:48:30;5.50;99.90
2899;DHT22;1459;50.864;6.438;2022-12-07T01:51:01;5.40;99.90
2899;DHT22;1459;50.864;6.438;2022-12-07T01:53:31;5.50;99.90
2899;DHT22;1459;50.864;6.438;2022-12-07T01:55:59;5.50;99.90
2899;DHT22;1459;50.864;6.438;2022-12-07T01:58:27;5.50;99.90
2899;DHT22;1459;50.864;6.438;2022-12-07T02:00:55;5.40;99.90
2899;DHT22;1459;50.864;6.438;2022-12-07T02:03:25;5.50;99.90
2899;DHT22;1459;50.864;6.438;2022-12-07T02:05:54;5.40;99.90
2899;DHT22;1459;50.864;6.438;2022-12-07T02:08:21;5.50;99.90
2899;DHT22;1459;50.864;6.438;2022-12-07T02:10:52;5.40;99.90
2899;DHT22;1459;50.864;6.438;2022-12-07T02:13:22;5.40;99.90
2899;DHT22;1459;50.864;6.438;2022-12-07T02:16:09;5.40;99.90
2899;DHT22;1459;50.864;6.438;2022-12-07T02:18:48;5.40;99.90
2899;DHT22;1459;50.864;6.438;2022-12-07T02:21:25;5.40;99.90
2899;DHT22;1459;50.864;6.438;2022-12-07T02:24:10;5.40;99.90
2899;DHT22;1459;50.864;6.438;2022-12-07T02:27:05;5.40;99.90
2899;DHT22;1459;50.864;6.438;2022-12-07T02:29:37;5.30;99.90
2899;DHT22;1459;50.864;6.438;2022-12-07T02:32:10;5.30;99.90
2899;DHT22;1459;50.864;6.438;2022-12-07T02:34:44;5.30;99.90
2899;DHT22;1459;50.864;6.438;2022-12-07T02:37:21;5.30;99.90
2899;DHT22;1459;50.864;6.438;2022-12-07T02:39:55;5.20;99.90
2899;DHT22;1459;50.864;6.438;2022-12-07T02:42:29;5.20;99.90
2899;DHT22;1459;50.864;6.438;2022-12-07T02:44:59;5.20;99.90
2899;DHT22;1459;50.864;6.438;2022-12-07T02:47:27;5.20;99.90
2899;DHT22;1459;50.864;6.438;2022-12-07T02:49:56;5.20;99.90
2899;DHT22;1459;50.864;6.438;2022-12-07T02:52:23;5.20;99.90
2899;DHT22;1459;50.864;6.438;2022-12-07T02:54:50;5.20;99.90
2899;DHT22;1459;50.864;6.438;2022-12-07T02:57:31;5.20;99.90
2899;DHT22;1459;50.864;6.438;2022-12-07T03:00:06;5.20;99.90
2899;DHT22;1459;50.864;6.438;2022-12-07T03:02:47;5.10;99.90
2899;DHT22;1459;50.864;6.438;2022-12-07T03:05:31;5.10;99.90
2899;DHT22;1459;50.864;6.438;2022-12-07T03:08:03;5.10;99.90
2899;DHT22;1459;50.864;6.438;2022-12-07T03:10:36;5.10;99.90
2899;DHT22;1459;50.864;6.438;2022-12-07T03:13:11;5.20;99.90
2899;DHT22;1459;50.864;6.438;2022-12-07T03:15:45;5.20;99.90
2899;DHT22;1459;50.864;6.438;2022-12-07T03:18:17;5.20;99.90
2899;DHT22;1459;50.864;6.438;2022-12-07T03:20:46;5.20;99.90
2899;DHT22;1459;50.864;6.438;2022-12-07T03:23:15;5.10;99.90
2899;DHT22;1459;50.864;6.438;2022-12-07T03:25:47;5.10;99.90
2899;DHT22;1459;50.864;6.438;2022-12-07T03:28:17;5.10;99.90
2899;DHT22;1459;50.864;6.438;2022-12-07T03:30:50;5.10;99.90
2899;DHT22;1459;50.864;6.438;2022-12-07T03:33:24;5.20;99.90
2899;DHT22;1459;50.864;6.438;2022-12-07T03:35:58;5.20;99.90
2899;DHT22;1459;50.864;6.438;2022-12-07T03:38:32;5.20;99.90
2899;DHT22;1459;50.864;6.438;2022-12-07T03:41:05;5.20;99.90
2899;DHT22;1459;50.864;6.438;2022-12-07T03:43:33;5.20;99.90
2899;DHT22;1459;50.864;6.438;2022-12-07T03:46:09;5.20;99.90
2899;DHT22;1459;50.864;6.438;2022-12-07T03:48:45;5.20;99.90
2899;DHT22;1459;50.864;6.438;2022-12-07T03:51:21;5.20;99.90
2899;DHT22;1459;50.864;6.438;2022-12-07T03:53:51;5.20;99.90
2899;DHT22;1459;50.864;6.438;2022-12-07T03:56:22;5.10;99.90
2899;DHT22;1459;50.864;6.438;2022-12-07T03:58:50;5.10;99.90
2899;DHT22;1459;50.864;6.438;2022-12-07T04:01:20;5.10;99.90
2899;DHT22;1459;50.864;6.438;2022-12-07T04:03:47;5.20;99.90
2899;DHT22;1459;50.864;6.438;2022-12-07T04:06:14;5.20;99.90
2899;DHT22;1459;50.864;6.438;2022-12-07T04:08:41;5.10;99.90
2899;DHT22;1459;50.864;6.438;2022-12-07T04:11:08;5.10;99.90
2899;DHT22;1459;50.864;6.438;2022-12-07T04:13:35;5.10;99.90
2899;DHT22;1459;50.864;6.438;2022-12-07T04:16:23;5.10;99.90
2899;DHT22;1459;50.864;6.438;2022-12-07T04:18:50;5.10;99.90
2899;DHT22;1459;50.864;6.438;2022-12-07T04:21:17;5.10;99.90
2899;DHT22;1459;50.864;6.438;2022-12-07T04:23:44;5.00;99.90
2899;DHT22;1459;50.864;6.438;2022-12-07T04:26:11;5.00;99.90
2899;DHT22;1459;50.864;6.438;2022-12-07T04:28:38;4.90;99.90
2899;DHT22;1459;50.864;6.438;2022-12-07T04:31:05;4.90;99.90
2899;DHT22;1459;50.864;6.438;2022-12-07T04:33:34;4.90;99.90
2899;DHT22;1459;50.864;6.438;2022-12-07T04:36:01;4.90;99.90
2899;DHT22;1459;50.864;6.438;2022-12-07T04:38:28;4.90;99.90
2899;DHT22;1459;50.864;6.438;2022-12-07T04:40:55;4.90;99.90
2899;DHT22;1459;50.864;6.438;2022-12-07T04:43:23;4.90;99.90
2899;DHT22;1459;50.864;6.438;2022-12-07T04:45:50;4.90;99.90
2899;DHT22;1459;50.864;6.438;2022-12-07T04:48:17;4.90;99.90
2899;DHT22;1459;50.864;6.438;2022-12-07T04:50:47;4.90;99.90
2899;DHT22;1459;50.864;6.438;2022-12-07T04:53:15;4.80;99.90
2899;DHT22;1459;50.864;6.438;2022-12-07T04:55:44;4.70;99.90
2899;DHT22;1459;50.864;6.438;2022-12-07T04:58:11;4.70;99.90
2899;DHT22;1459;50.864;6.438;2022-12-07T05:00:39;4.70;99.90
2899;DHT22;1459;50.864;6.438;2022-12-07T05:03:06;4.70;99.90
2899;DHT22;1459;50.864;6.438;2022-12-07T05:05:33;4.60;99.90
2899;DHT22;1459;50.864;6.438;2022-12-07T05:08:01;4.60;99.90
2899;DHT22;1459;50.864;6.438;2022-12-07T05:10:28;4.50;99.90
2899;DHT22;1459;50.864;6.438;2022-12-07T05:12:55;4.50;99.90
2899;DHT22;1459;50.864;6.438;2022-12-07T05:15:22;4.50;99.90
2899;DHT22;1459;50.864;6.438;2022-12-07T05:17:49;4.50;99.90
2899;DHT22;1459;50.864;6.438;2022-12-07T05:20:17;4.50;99.90
2899;DHT22;1459;50.864;6.438;2022-12-07T05:22:44;4.50;99.90
2899;DHT22;1459;50.864;6.438;2022-12-07T05:25:13;4.60;99.90
2899;DHT22;1459;50.864;6.438;2022-12-07T05:27:40;4.60;99.90
2899;DHT22;1459;50.864;6.438;2022-12-07T05:30:08;4.60;99.90
2899;DHT22;1459;50.864;6.438;2022-12-07T05:32:35;4.70;99.90
2899;DHT22;1459;50.864;6.438;2022-12-07T05:35:02;4.70;99.90
2899;DHT22;1459;50.864;6.438;2022-12-07T05:37:29;4.70;99.90
2899;DHT22;1459;50.864;6.438;2022-12-07T05:39:56;4.70;99.90
2899;DHT22;1459;50.864;6.438;2022-12-07T05:42:24;4.70;99.90
2899;DHT22;1459;50.864;6.438;2022-12-07T05:44:51;4.80;99.90
2899;DHT22;1459;50.864;6.438;2022-12-07T05:47:18;4.90;99.90
2899;DHT22;1459;50.864;6.438;2022-12-07T05:49:45;4.90;99.90
2899;DHT22;1459;50.864;6.438;2022-12-07T05:52:12;5.00;99.90
2899;DHT22;1459;50.864;6.438;2022-12-07T05:54:39;5.00;99.90
2899;DHT22;1459;50.864;6.438;2022-12-07T05:57:06;5.00;99.90
2899;DHT22;1459;50.864;6.438;2022-12-07T05:59:35;5.00;99.90
2899;DHT22;1459;50.864;6.438;2022-12-07T06:02:03;5.00;99.90
2899;DHT22;1459;50.864;6.438;2022-12-07T06:04:32;4.90;99.90
2899;DHT22;1459;50.864;6.438;2022-12-07T06:06:59;4.90;99.90
2899;DHT22;1459;50.864;6.438;2022-12-07T06:09:28;4.90;99.90
2899;DHT22;1459;50.864;6.438;2022-12-07T06:11:55;4.90;99.90
2899;DHT22;1459;50.864;6.438;2022-12-07T06:14:42;4.90;99.90
2899;DHT22;1459;50.864;6.438;2022-12-07T06:17:09;4.90;99.90
2899;DHT22;1459;50.864;6.438;2022-12-07T06:19:36;4.90;99.90
2899;DHT22;1459;50.864;6.438;2022-12-07T06:22:04;5.00;99.90
2899;DHT22;1459;50.864;6.438;2022-12-07T06:24:32;5.00;99.90
2899;DHT22;1459;50.864;6.438;2022-12-07T06:26:59;5.00;99.90
2899;DHT22;1459;50.864;6.438;2022-12-07T06:29:27;4.90;99.90
2899;DHT22;1459;50.864;6.438;2022-12-07T06:31:55;4.90;99.90
2899;DHT22;1459;50.864;6.438;2022-12-07T06:34:23;5.00;99.90
2899;DHT22;1459;50.864;6.438;2022-12-07T06:36:51;5.00;99.90
2899;DHT22;1459;50.864;6.438;2022-12-07T06:39:19;4.90;99.90
2899;DHT22;1459;50.864;6.438;2022-12-07T06:41:46;4.90;99.90
2899;DHT22;1459;50.864;6.438;2022-12-07T06:44:13;4.90;99.90
2899;DHT22;1459;50.864;6.438;2022-12-07T06:46:41;5.00;99.90
2899;DHT22;1459;50.864;6.438;2022-12-07T06:49:09;4.90;99.90
2899;DHT22;1459;50.864;6.438;2022-12-07T06:51:36;4.90;99.90
2899;DHT22;1459;50.864;6.438;2022-12-07T06:54:06;5.00;99.90
2899;DHT22;1459;50.864;6.438;2022-12-07T06:56:33;4.90;99.90
2899;DHT22;1459;50.864;6.438;2022-12-07T06:59:00;4.90;99.90
2899;DHT22;1459;50.864;6.438;2022-12-07T07:01:28;4.90;99.90
2899;DHT22;1459;50.864;6.438;2022-12-07T07:03:55;4.90;99.90
2899;DHT22;1459;50.864;6.438;2022-12-07T07:06:23;4.90;99.90
2899;DHT22;1459;50.864;6.438;2022-12-07T07:08:50;4.90;99.90
2899;DHT22;1459;50.864;6.438;2022-12-07T07:11:17;4.90;99.90
2899;DHT22;1459;50.864;6.438;2022-12-07T07:13:45;4.90;99.90
2899;DHT22;1459;50.864;6.438;2022-12-07T07:16:14;4.90;99.90
2899;DHT22;1459;50.864;6.438;2022-12-07T07:18:41;4.90;99.90
2899;DHT22;1459;50.864;6.438;2022-12-07T07:21:09;4.90;99.90
2899;DHT22;1459;50.864;6.438;2022-12-07T07:23:37;4.90;99.90
2899;DHT22;1459;50.864;6.438;2022-12-07T07:26:04;4.90;99.90
2899;DHT22;1459;50.864;6.438;2022-12-07T07:28:31;5.00;99.90
2899;DHT22;1459;50.864;6.438;2022-12-07T07:30:58;5.00;99.90
2899;DHT22;1459;50.864;6.438;2022-12-07T07:33:25;5.00;99.90
2899;DHT22;1459;50.864;6.438;2022-12-07T07:35:52;5.10;99.90
2899;DHT22;1459;50.864;6.438;2022-12-07T07:38:19;5.10;99.90
2899;DHT22;1459;50.864;6.438;2022-12-07T07:40:47;5.10;99.90
2899;DHT22;1459;50.864;6.438;2022-12-07T07:43:14;5.20;99.90
2899;DHT22;1459;50.864;6.438;2022-12-07T07:45:41;5.20;99.90
2899;DHT22;1459;50.864;6.438;2022-12-07T07:48:08;5.10;99.90
2899;DHT22;1459;50.864;6.438;2022-12-07T07:50:35;5.10;99.90
2899;DHT22;1459;50.864;6.438;2022-12-07T07:53:02;5.10;99.90
2899;DHT22;1459;50.864;6.438;2022-12-07T07:55:29;5.10;99.90
2899;DHT22;1459;50.864;6.438;2022-12-07T07:57:58;5.00;99.90
2899;DHT22;1459;50.864;6.438;2022-12-07T08:00:28;5.00;99.90
2899;DHT22;1459;50.864;6.438;2022-12-07T08:02:55;5.00;99.90
2899;DHT22;1459;50.864;6.438;2022-12-07T08:05:22;5.00;99.90
2899;DHT22;1459;50.864;6.438;2022-12-07T08:07:49;5.00;99.90
2899;DHT22;1459;50.864;6.438;2022-12-07T08:10:16;5.00;99.90
2899;DHT22;1459;50.864;6.438;2022-12-07T08:12:43;5.00;99.90
2899;DHT22;1459;50.864;6.438;2022-12-07T08:15:30;5.00;99.90
2899;DHT22;1459;50.864;6.438;2022-12-07T08:17:58;5.00;99.90
2899;DHT22;1459;50.864;6.438;2022-12-07T08:20:25;5.00;99.90
2899;DHT22;1459;50.864;6.438;2022-12-07T08:22:52;5.00;99.90
2899;DHT22;1459;50.864;6.438;2022-12-07T08:25:21;5.10;99.90
2899;DHT22;1459;50.864;6.438;2022-12-07T08:27:49;5.10;99.90
2899;DHT22;1459;50.864;6.438;2022-12-07T08:30:17;5.10;99.90
2899;DHT22;1459;50.864;6.438;2022-12-07T08:32:47;5.10;99.90
2899;DHT22;1459;50.864;6.438;2022-12-07T08:35:14;5.10;99.90
2899;DHT22;1459;50.864;6.438;2022-12-07T08:37:42;5.00;99.90
2899;DHT22;1459;50.864;6.438;2022-12-07T08:40:10;5.00;99.90
2899;DHT22;1459;50.864;6.438;2022-12-07T08:42:40;5.00;99.90
2899;DHT22;1459;50.864;6.438;2022-12-07T08:45:09;5.00;99.90
2899;DHT22;1459;50.864;6.438;2022-12-07T08:47:40;4.90;99.90
2899;DHT22;1459;50.864;6.438;2022-12-07T08:50:10;4.90;99.90
2899;DHT22;1459;50.864;6.438;2022-12-07T08:52:39;4.90;99.90
2899;DHT22;1459;50.864;6.438;2022-12-07T08:55:09;4.90;99.90
2899;DHT22;1459;50.864;6.438;2022-12-07T08:57:37;5.00;99.90
2899;DHT22;1459;50.864;6.438;2022-12-07T09:00:07;5.10;99.90
2899;DHT22;1459;50.864;6.438;2022-12-07T09:02:34;5.10;99.90
2899;DHT22;1459;50.864;6.438;2022-12-07T09:05:01;5.10;99.90
2899;DHT22;1459;50.864;6.438;2022-12-07T09:07:30;5.10;99.90
2899;DHT22;1459;50.864;6.438;2022-12-07T09:09:58;5.10;99.90
2899;DHT22;1459;50.864;6.438;2022-12-07T09:12:25;5.10;99.90
2899;DHT22;1459;50.864;6.438;2022-12-07T09:14:52;5.10;99.90
2899;DHT22;1459;50.864;6.438;2022-12-07T09:17:19;5.10;99.90
2899;DHT22;1459;50.864;6.438;2022-12-07T09:19:46;5.20;99.90
2899;DHT22;1459;50.864;6.438;2022-12-07T09:22:13;5.30;99.90
2899;DHT22;1459;50.864;6.438;2022-12-07T09:24:42;5.40;99.90
2899;DHT22;1459;50.864;6.438;2022-12-07T09:27:11;5.40;99.90
2899;DHT22;1459;50.864;6.438;2022-12-07T09:29:38;5.50;99.90
2899;DHT22;1459;50.864;6.438;2022-12-07T09:32:05;5.50;99.90
2899;DHT22;1459;50.864;6.438;2022-12-07T09:34:32;5.40;99.90
2899;DHT22;1459;50.864;6.438;2022-12-07T09:37:01;5.40;99.90
2899;DHT22;1459;50.864;6.438;2022-12-07T09:39:29;5.30;99.90
2899;DHT22;1459;50.864;6.438;2022-12-07T09:41:59;5.30;99.90
2899;DHT22;1459;50.864;6.438;2022-12-07T09:44:29;5.20;99.90
2899;DHT22;1459;50.864;6.438;2022-12-07T09:46:56;5.20;99.90
2899;DHT22;1459;50.864;6.438;2022-12-07T09:49:28;5.20;99.90
2899;DHT22;1459;50.864;6.438;2022-12-07T09:52:02;5.20;99.90
2899;DHT22;1459;50.864;6.438;2022-12-07T09:54:30;5.10;99.90
2899;DHT22;1459;50.864;6.438;2022-12-07T09:56:58;5.10;99.90
2899;DHT22;1459;50.864;6.438;2022-12-07T09:59:26;5.10;99.90
2899;DHT22;1459;50.864;6.438;2022-12-07T10:01:53;5.20;99.90
2899;DHT22;1459;50.864;6.438;2022-12-07T10:04:22;5.30;99.90
2899;DHT22;1459;50.864;6.438;2022-12-07T10:06:50;5.40;99.90
2899;DHT22;1459;50.864;6.438;2022-12-07T10:09:19;5.50;99.90
2899;DHT22;1459;50.864;6.438;2022-12-07T10:12:01;5.60;99.90
2899;DHT22;1459;50.864;6.438;2022-12-07T10:14:30;5.60;99.90
2899;DHT22;1459;50.864;6.438;2022-12-07T10:16:57;5.50;99.90
2899;DHT22;1459;50.864;6.438;2022-12-07T10:19:27;5.50;99.90
2899;DHT22;1459;50.864;6.438;2022-12-07T10:22:05;5.50;99.90
2899;DHT22;1459;50.864;6.438;2022-12-07T10:24:32;5.50;99.90
2899;DHT22;1459;50.864;6.438;2022-12-07T10:27:01;5.50;99.90
2899;DHT22;1459;50.864;6.438;2022-12-07T10:29:32;5.50;99.90
2899;DHT22;1459;50.864;6.438;2022-12-07T10:32:03;5.50;99.90
2899;DHT22;1459;50.864;6.438;2022-12-07T10:34:36;5.50;99.90
2899;DHT22;1459;50.864;6.438;2022-12-07T10:37:15;5.60;99.90
2899;DHT22;1459;50.864;6.438;2022-12-07T10:39:44;5.70;99.90
2899;DHT22;1459;50.864;6.438;2022-12-07T10:42:23;5.80;99.90
2899;DHT22;1459;50.864;6.438;2022-12-07T10:45:08;5.90;99.90
2899;DHT22;1459;50.864;6.438;2022-12-07T10:47:38;6.00;99.90
2899;DHT22;1459;50.864;6.438;2022-12-07T10:53:19;5.90;99.90
2899;DHT22;1459;50.864;6.438;2022-12-07T10:56:01;6.00;99.90
2899;DHT22;1459;50.864;6.438;2022-12-07T10:58:49;6.00;99.90
2899;DHT22;1459;50.864;6.438;2022-12-07T11:01:24;6.00;99.90
2899;DHT22;1459;50.864;6.438;2022-12-07T11:04:02;6.00;99.90
2899;DHT22;1459;50.864;6.438;2022-12-07T11:06:40;6.00;99.90
2899;DHT22;1459;50.864;6.438;2022-12-07T11:12:16;6.00;99.90
2899;DHT22;1459;50.864;6.438;2022-12-07T11:14:55;6.00;99.90
2899;DHT22;1459;50.864;6.438;2022-12-07T11:17:31;5.90;99.90
2899;DHT22;1459;50.864;6.438;2022-12-07T11:20:06;6.00;99.90
2899;DHT22;1459;50.864;6.438;2022-12-07T11:22:46;6.00;99.90
2899;DHT22;1459;50.864;6.438;2022-12-07T11:25:20;5.90;99.90
2899;DHT22;1459;50.864;6.438;2022-12-07T11:28:02;5.80;99.90
2899;DHT22;1459;50.864;6.438;2022-12-07T11:30:38;5.80;99.90
2899;DHT22;1459;50.864;6.438;2022-12-07T11:33:15;5.80;99.90
2899;DHT22;1459;50.864;6.438;2022-12-07T11:35:54;5.80;99.90
2899;DHT22;1459;50.864;6.438;2022-12-07T11:38:28;5.80;99.90
2899;DHT22;1459;50.864;6.438;2022-12-07T11:41:01;5.80;99.90
2899;DHT22;1459;50.864;6.438;2022-12-07T11:43:54;5.80;99.90
2899;DHT22;1459;50.864;6.438;2022-12-07T11:46:26;5.90;99.90
2899;DHT22;1459;50.864;6.438;2022-12-07T11:48:58;6.10;99.90
2899;DHT22;1459;50.864;6.438;2022-12-07T11:51:30;6.20;99.90
2899;DHT22;1459;50.864;6.438;2022-12-07T11:54:02;6.30;99.90
2899;DHT22;1459;50.864;6.438;2022-12-07T11:56:30;6.30;99.90
2899;DHT22;1459;50.864;6.438;2022-12-07T11:59:08;6.40;99.90
2899;DHT22;1459;50.864;6.438;2022-12-07T12:01:48;6.40;99.90
2899;DHT22;1459;50.864;6.438;2022-12-07T12:04:28;6.50;99.90
2899;DHT22;1459;50.864;6.438;2022-12-07T12:06:57;6.50;99.90
2899;DHT22;1459;50.864;6.438;2022-12-07T12:09:30;6.60;99.90
2899;DHT22;1459;50.864;6.438;2022-12-07T12:12:29;6.60;99.90
2899;DHT22;1459;50.864;6.438;2022-12-07T12:15:18;6.70;99.90
2899;DHT22;1459;50.864;6.438;2022-12-07T12:17:58;6.80;99.90
2899;DHT22;1459;50.864;6.438;2022-12-07T12:20:32;7.10;99.90
2899;DHT22;1459;50.864;6.438;2022-12-07T12:23:07;7.40;99.90
2899;DHT22;1459;50.864;6.438;2022-12-07T12:25:40;7.50;99.90
2899;DHT22;1459;50.864;6.438;2022-12-07T12:28:19;7.70;99.90
2899;DHT22;1459;50.864;6.438;2022-12-07T12:31:05;8.00;99.90
2899;DHT22;1459;50.864;6.438;2022-12-07T12:33:35;8.10;99.90
2899;DHT22;1459;50.864;6.438;2022-12-07T12:36:42;8.20;99.90
2899;DHT22;1459;50.864;6.438;2022-12-07T12:39:12;8.40;99.90
2899;DHT22;1459;50.864;6.438;2022-12-07T12:42:01;8.60;99.90
2899;DHT22;1459;50.864;6.438;2022-12-07T12:45:11;8.80;99.90
2899;DHT22;1459;50.864;6.438;2022-12-07T12:48:04;8.80;99.90
2899;DHT22;1459;50.864;6.438;2022-12-07T12:50:34;9.00;99.90
2899;DHT22;1459;50.864;6.438;2022-12-07T12:56:48;9.10;99.90
2899;DHT22;1459;50.864;6.438;2022-12-07T13:02:22;9.60;99.90
2899;DHT22;1459;50.864;6.438;2022-12-07T13:04:53;9.40;99.90
2899;DHT22;1459;50.864;6.438;2022-12-07T13:10:44;9.30;99.90
2899;DHT22;1459;50.864;6.438;2022-12-07T13:13:32;9.10;99.90
2899;DHT22;1459;50.864;6.438;2022-12-07T13:16:38;9.00;99.90
2899;DHT22;1459;50.864;6.438;2022-12-07T13:22:51;9.90;99.90
2899;DHT22;1459;50.864;6.438;2022-12-07T13:25:29;9.80;99.90
2899;DHT22;1459;50.864;6.438;2022-12-07T13:31:20;9.70;99.90
2899;DHT22;1459;50.864;6.438;2022-12-07T13:33:49;9.50;99.90
2899;DHT22;1459;50.864;6.438;2022-12-07T13:36:21;9.50;99.90
2899;DHT22;1459;50.864;6.438;2022-12-07T13:38:57;9.40;99.90
2899;DHT22;1459;50.864;6.438;2022-12-07T13:41:25;9.30;99.90
2899;DHT22;1459;50.864;6.438;2022-12-07T13:44:07;9.40;99.90
2899;DHT22;1459;50.864;6.438;2022-12-07T13:46:44;9.40;99.90
2899;DHT22;1459;50.864;6.438;2022-12-07T13:49:19;9.40;99.90
2899;DHT22;1459;50.864;6.438;2022-12-07T13:51:50;9.40;99.90
2899;DHT22;1459;50.864;6.438;2022-12-07T13:54:18;9.60;99.90
2899;DHT22;1459;50.864;6.438;2022-12-07T13:56:48;9.50;99.90
2899;DHT22;1459;50.864;6.438;2022-12-07T13:59:19;9.50;99.90
2899;DHT22;1459;50.864;6.438;2022-12-07T14:01:49;9.20;99.90
2899;DHT22;1459;50.864;6.438;2022-12-07T14:04:29;9.20;99.90
2899;DHT22;1459;50.864;6.438;2022-12-07T14:06:56;9.50;99.90
2899;DHT22;1459;50.864;6.438;2022-12-07T14:09:26;9.50;99.90
2899;DHT22;1459;50.864;6.438;2022-12-07T14:11:55;10.50;99.90
2899;DHT22;1459;50.864;6.438;2022-12-07T14:14:26;10.70;99.90
2899;DHT22;1459;50.864;6.438;2022-12-07T14:16:58;10.70;99.90
2899;DHT22;1459;50.864;6.438;2022-12-07T14:19:44;10.60;99.90
2899;DHT22;1459;50.864;6.438;2022-12-07T14:22:23;10.20;99.90
2899;DHT22;1459;50.864;6.438;2022-12-07T14:24:57;10.00;99.90
2899;DHT22;1459;50.864;6.438;2022-12-07T14:27:31;9.90;99.90
2899;DHT22;1459;50.864;6.438;2022-12-07T14:30:01;9.70;99.90
2899;DHT22;1459;50.864;6.438;2022-12-07T14:32:50;9.50;99.90
2899;DHT22;1459;50.864;6.438;2022-12-07T14:35:45;9.50;99.90
2899;DHT22;1459;50.864;6.438;2022-12-07T14:38:34;9.80;99.90
2899;DHT22;1459;50.864;6.438;2022-12-07T14:41:04;10.00;99.90
2899;DHT22;1459;50.864;6.438;2022-12-07T14:43:50;9.80;99.90
2899;DHT22;1459;50.864;6.438;2022-12-07T14:46:18;10.00;99.90
2899;DHT22;1459;50.864;6.438;2022-12-07T14:48:45;10.20;99.90
2899;DHT22;1459;50.864;6.438;2022-12-07T14:51:12;10.40;99.90
2899;DHT22;1459;50.864;6.438;2022-12-07T14:53:41;10.50;99.90
2899;DHT22;1459;50.864;6.438;2022-12-07T14:56:09;10.60;99.90
2899;DHT22;1459;50.864;6.438;2022-12-07T14:58:36;10.50;99.90
2899;DHT22;1459;50.864;6.438;2022-12-07T15:01:03;10.60;99.90
2899;DHT22;1459;50.864;6.438;2022-12-07T15:03:31;10.20;99.90
2899;DHT22;1459;50.864;6.438;2022-12-07T15:06:00;9.70;99.90
2899;DHT22;1459;50.864;6.438;2022-12-07T15:08:27;9.40;99.90
2899;DHT22;1459;50.864;6.438;2022-12-07T15:10:54;8.80;99.90
2899;DHT22;1459;50.864;6.438;2022-12-07T15:13:20;8.70;99.90
2899;DHT22;1459;50.864;6.438;2022-12-07T15:16:07;8.50;99.90
2899;DHT22;1459;50.864;6.438;2022-12-07T15:18:36;8.20;99.90
2899;DHT22;1459;50.864;6.438;2022-12-07T15:21:03;8.10;99.90
2899;DHT22;1459;50.864;6.438;2022-12-07T15:23:30;8.00;99.90
2899;DHT22;1459;50.864;6.438;2022-12-07T15:25:58;7.90;99.90
2899;DHT22;1459;50.864;6.438;2022-12-07T15:28:25;7.70;99.90
2899;DHT22;1459;50.864;6.438;2022-12-07T15:30:52;7.50;99.90
2899;DHT22;1459;50.864;6.438;2022-12-07T15:33:19;7.40;99.90
2899;DHT22;1459;50.864;6.438;2022-12-07T15:35:47;7.40;99.90
2899;DHT22;1459;50.864;6.438;2022-12-07T15:38:14;7.30;99.90
2899;DHT22;1459;50.864;6.438;2022-12-07T15:40:41;7.20;99.90
2899;DHT22;1459;50.864;6.438;2022-12-07T15:43:09;7.20;99.90
2899;DHT22;1459;50.864;6.438;2022-12-07T15:45:56;7.10;99.90
2899;DHT22;1459;50.864;6.438;2022-12-07T15:48:23;7.00;99.90
2899;DHT22;1459;50.864;6.438;2022-12-07T15:50:51;7.00;99.90
2899;DHT22;1459;50.864;6.438;2022-12-07T15:53:18;7.00;99.90
2899;DHT22;1459;50.864;6.438;2022-12-07T15:55:45;7.00;99.90
2899;DHT22;1459;50.864;6.438;2022-12-07T15:58:12;6.90;99.90
2899;DHT22;1459;50.864;6.438;2022-12-07T16:00:39;6.80;99.90
2899;DHT22;1459;50.864;6.438;2022-12-07T16:03:06;6.70;99.90
2899;DHT22;1459;50.864;6.438;2022-12-07T16:05:33;6.60;99.90
2899;DHT22;1459;50.864;6.438;2022-12-07T16:08:02;6.50;99.90
2899;DHT22;1459;50.864;6.438;2022-12-07T16:10:29;6.40;99.90
2899;DHT22;1459;50.864;6.438;2022-12-07T16:12:56;6.30;99.90
2899;DHT22;1459;50.864;6.438;2022-12-07T16:15:23;6.20;99.90
2899;DHT22;1459;50.864;6.438;2022-12-07T16:17:51;6.10;99.90
2899;DHT22;1459;50.864;6.438;2022-12-07T16:20:19;6.00;99.90
2899;DHT22;1459;50.864;6.438;2022-12-07T16:22:46;5.90;99.90
2899;DHT22;1459;50.864;6.438;2022-12-07T16:25:14;5.90;99.90
2899;DHT22;1459;50.864;6.438;2022-12-07T16:27:44;5.80;99.90
2899;DHT22;1459;50.864;6.438;2022-12-07T16:30:13;5.80;99.90
2899;DHT22;1459;50.864;6.438;2022-12-07T16:32:41;5.80;99.90
2899;DHT22;1459;50.864;6.438;2022-12-07T16:35:10;5.80;99.90
2899;DHT22;1459;50.864;6.438;2022-12-07T16:37:37;5.70;99.90
2899;DHT22;1459;50.864;6.438;2022-12-07T16:40:06;5.70;99.90
2899;DHT22;1459;50.864;6.438;2022-12-07T16:42:35;5.70;99.90
2899;DHT22;1459;50.864;6.438;2022-12-07T16:45:03;5.70;99.90
2899;DHT22;1459;50.864;6.438;2022-12-07T16:47:30;5.80;99.90
2899;DHT22;1459;50.864;6.438;2022-12-07T16:49:57;5.80;99.90
2899;DHT22;1459;50.864;6.438;2022-12-07T16:52:24;5.80;99.90
2899;DHT22;1459;50.864;6.438;2022-12-07T16:54:51;5.80;99.90
2899;DHT22;1459;50.864;6.438;2022-12-07T16:57:18;5.80;99.90
2899;DHT22;1459;50.864;6.438;2022-12-07T16:59:46;5.80;99.90
2899;DHT22;1459;50.864;6.438;2022-12-07T17:02:13;5.80;99.90
2899;DHT22;1459;50.864;6.438;2022-12-07T17:04:40;5.80;99.90